sensor_id;sensor_type;location;lat;lon;timestamp;pressure;altitude;pressure_sealevel;temperature;humidity
23339;BME280;11841;49.368;20.962;2023-02-03T00:02:25;95940.84;;;0.71;85.20
23339;BME280;11841;49.368;20.962;2023-02-03T00:04:52;95949.34;;;0.73;85.30
23339;BME280;11841;49.368;20.962;2023-02-03T00:07:18;95953.06;;;0.70;85.44
23339;BME280;11841;49.368;20.962;2023-02-03T00:09:44;95970.50;;;0.70;86.22
23339;BME280;11841;49.368;20.962;2023-02-03T00:12:11;95961.66;;;0.63;87.09
23339;BME280;11841;49.368;20.962;2023-02-03T00:14:38;95963.44;;;0.62;87.92
23339;BME280;11841;49.368;20.962;2023-02-03T00:17:05;95973.56;;;0.65;88.12
23339;BME280;11841;49.368;20.962;2023-02-03T00:19:31;95963.66;;;0.69;88.07
23339;BME280;11841;49.368;20.962;2023-02-03T00:21:58;95955.94;;;0.59;87.88
23339;BME280;11841;49.368;20.962;2023-02-03T00:24:24;95981.56;;;0.64;87.41
23339;BME280;11841;49.368;20.962;2023-02-03T00:26:51;95970.13;;;0.65;87.62
23339;BME280;11841;49.368;20.962;2023-02-03T00:29:17;95972.53;;;0.58;87.68
23339;BME280;11841;49.368;20.962;2023-02-03T00:31:46;95972.09;;;0.63;87.59
23339;BME280;11841;49.368;20.962;2023-02-03T00:34:13;95968.50;;;0.64;87.52
23339;BME280;11841;49.368;20.962;2023-02-03T00:36:39;95972.59;;;0.66;87.49
23339;BME280;11841;49.368;20.962;2023-02-03T00:39:08;95972.97;;;0.71;87.40
23339;BME280;11841;49.368;20.962;2023-02-03T00:41:34;95976.72;;;0.69;87.20
23339;BME280;11841;49.368;20.962;2023-02-03T00:44:01;95962.69;;;0.70;87.04
23339;BME280;11841;49.368;20.962;2023-02-03T00:46:27;95971.50;;;0.69;87.27
23339;BME280;11841;49.368;20.962;2023-02-03T00:48:54;95982.28;;;0.74;87.00
23339;BME280;11841;49.368;20.962;2023-02-03T00:51:20;95988.78;;;0.70;87.09
23339;BME280;11841;49.368;20.962;2023-02-03T00:53:47;95981.78;;;0.70;87.42
23339;BME280;11841;49.368;20.962;2023-02-03T00:56:13;96004.50;;;0.60;87.69
23339;BME280;11841;49.368;20.962;2023-02-03T00:58:40;95981.34;;;0.57;87.65
23339;BME280;11841;49.368;20.962;2023-02-03T01:01:07;96010.34;;;0.54;87.16
23339;BME280;11841;49.368;20.962;2023-02-03T01:03:33;96006.31;;;0.42;86.85
23339;BME280;11841;49.368;20.962;2023-02-03T01:06:07;96011.38;;;0.44;86.87
23339;BME280;11841;49.368;20.962;2023-02-03T01:08:34;96003.16;;;0.39;87.17
23339;BME280;11841;49.368;20.962;2023-02-03T01:11:07;95999.28;;;0.43;87.39
23339;BME280;11841;49.368;20.962;2023-02-03T01:13:34;96016.59;;;0.44;87.85
23339;BME280;11841;49.368;20.962;2023-02-03T01:16:01;96016.66;;;0.52;87.93
23339;BME280;11841;49.368;20.962;2023-02-03T01:18:28;96033.00;;;0.54;88.10
23339;BME280;11841;49.368;20.962;2023-02-03T01:20:54;96031.94;;;0.47;88.03
23339;BME280;11841;49.368;20.962;2023-02-03T01:23:21;96028.94;;;0.42;87.94
23339;BME280;11841;49.368;20.962;2023-02-03T01:25:47;96043.25;;;0.38;88.39
23339;BME280;11841;49.368;20.962;2023-02-03T01:28:14;96048.44;;;0.38;87.66
23339;BME280;11841;49.368;20.962;2023-02-03T01:30:40;96032.28;;;0.34;87.54
23339;BME280;11841;49.368;20.962;2023-02-03T01:33:07;96032.81;;;0.38;87.34
23339;BME280;11841;49.368;20.962;2023-02-03T01:35:33;96028.72;;;0.35;87.42
23339;BME280;11841;49.368;20.962;2023-02-03T01:38:00;96029.09;;;0.40;87.66
23339;BME280;11841;49.368;20.962;2023-02-03T01:40:27;96043.47;;;0.44;87.21
23339;BME280;11841;49.368;20.962;2023-02-03T01:42:54;96039.59;;;0.48;87.04
23339;BME280;11841;49.368;20.962;2023-02-03T01:45:20;96035.78;;;0.43;87.04
23339;BME280;11841;49.368;20.962;2023-02-03T01:50:17;96056.38;;;0.46;86.87
23339;BME280;11841;49.368;20.962;2023-02-03T01:52:47;96044.28;;;0.45;86.99
23339;BME280;11841;49.368;20.962;2023-02-03T01:55:16;96040.38;;;0.41;86.25
23339;BME280;11841;49.368;20.962;2023-02-03T01:57:46;96031.63;;;0.50;86.51
23339;BME280;11841;49.368;20.962;2023-02-03T02:00:14;96049.81;;;0.42;86.21
23339;BME280;11841;49.368;20.962;2023-02-03T02:02:41;96062.25;;;0.30;86.14
23339;BME280;11841;49.368;20.962;2023-02-03T02:05:31;96041.06;;;0.33;86.21
23339;BME280;11841;49.368;20.962;2023-02-03T02:07:56;96053.13;;;0.34;86.56
23339;BME280;11841;49.368;20.962;2023-02-03T02:10:23;96055.09;;;0.32;86.45
23339;BME280;11841;49.368;20.962;2023-02-03T02:12:51;96047.13;;;0.34;85.88
23339;BME280;11841;49.368;20.962;2023-02-03T02:15:19;96036.69;;;0.34;85.83
23339;BME280;11841;49.368;20.962;2023-02-03T02:33:22;96018.50;;;0.42;85.18
23339;BME280;11841;49.368;20.962;2023-02-03T02:35:57;96031.78;;;0.48;86.01
23339;BME280;11841;49.368;20.962;2023-02-03T02:41:47;96032.22;;;0.44;86.10
23339;BME280;11841;49.368;20.962;2023-02-03T02:43:48;96041.69;;;0.45;86.41
23339;BME280;11841;49.368;20.962;2023-02-03T02:46:18;96042.56;;;0.36;85.86
23339;BME280;11841;49.368;20.962;2023-02-03T02:49:00;96034.63;;;0.37;86.20
23339;BME280;11841;49.368;20.962;2023-02-03T02:51:30;96038.41;;;0.43;86.40
23339;BME280;11841;49.368;20.962;2023-02-03T02:53:59;96044.66;;;0.32;86.13
23339;BME280;11841;49.368;20.962;2023-02-03T02:56:27;96050.16;;;0.29;87.17
23339;BME280;11841;49.368;20.962;2023-02-03T02:58:55;96044.13;;;0.29;87.87
23339;BME280;11841;49.368;20.962;2023-02-03T03:01:23;96051.84;;;0.21;88.92
23339;BME280;11841;49.368;20.962;2023-02-03T03:03:49;96051.19;;;0.19;89.36
23339;BME280;11841;49.368;20.962;2023-02-03T03:08:53;96051.97;;;0.29;89.24
23339;BME280;11841;49.368;20.962;2023-02-03T03:11:23;96051.13;;;0.28;89.24
23339;BME280;11841;49.368;20.962;2023-02-03T03:13:52;96054.25;;;0.32;88.90
23339;BME280;11841;49.368;20.962;2023-02-03T03:16:21;96060.59;;;0.29;88.59
23339;BME280;11841;49.368;20.962;2023-02-03T03:18:50;96057.56;;;0.34;88.83
23339;BME280;11841;49.368;20.962;2023-02-03T03:21:21;96062.03;;;0.41;88.78
23339;BME280;11841;49.368;20.962;2023-02-03T03:23:50;96059.66;;;0.48;88.81
23339;BME280;11841;49.368;20.962;2023-02-03T03:26:26;96051.69;;;0.49;88.81
23339;BME280;11841;49.368;20.962;2023-02-03T03:28:56;96059.06;;;0.54;88.69
23339;BME280;11841;49.368;20.962;2023-02-03T03:31:25;96058.41;;;0.52;87.93
23339;BME280;11841;49.368;20.962;2023-02-03T03:33:52;96044.97;;;0.47;88.33
23339;BME280;11841;49.368;20.962;2023-02-03T03:36:29;96047.97;;;0.52;88.55
23339;BME280;11841;49.368;20.962;2023-02-03T03:39:01;96051.63;;;0.59;88.36
23339;BME280;11841;49.368;20.962;2023-02-03T03:44:02;96053.47;;;0.66;88.13
23339;BME280;11841;49.368;20.962;2023-02-03T03:46:35;96049.69;;;0.61;87.68
23339;BME280;11841;49.368;20.962;2023-02-03T03:49:05;96030.06;;;0.57;87.41
23339;BME280;11841;49.368;20.962;2023-02-03T03:51:41;96041.75;;;0.53;87.92
23339;BME280;11841;49.368;20.962;2023-02-03T03:54:10;96028.34;;;0.48;87.86
23339;BME280;11841;49.368;20.962;2023-02-03T03:56:40;96026.72;;;0.47;87.79
23339;BME280;11841;49.368;20.962;2023-02-03T03:59:07;96033.19;;;0.43;87.27
23339;BME280;11841;49.368;20.962;2023-02-03T04:01:36;96031.41;;;0.43;87.00
23339;BME280;11841;49.368;20.962;2023-02-03T04:04:05;96037.34;;;0.36;85.66
23339;BME280;11841;49.368;20.962;2023-02-03T04:06:32;96039.31;;;0.34;86.18
23339;BME280;11841;49.368;20.962;2023-02-03T04:08:58;96043.97;;;0.30;85.86
23339;BME280;11841;49.368;20.962;2023-02-03T04:11:27;96043.53;;;0.35;86.43
23339;BME280;11841;49.368;20.962;2023-02-03T04:14:12;96050.63;;;0.42;86.26
23339;BME280;11841;49.368;20.962;2023-02-03T04:16:39;96053.91;;;0.44;86.13
23339;BME280;11841;49.368;20.962;2023-02-03T04:19:05;96060.09;;;0.43;86.16
23339;BME280;11841;49.368;20.962;2023-02-03T04:21:33;96051.28;;;0.44;86.43
23339;BME280;11841;49.368;20.962;2023-02-03T04:24:00;96051.28;;;0.44;86.54
23339;BME280;11841;49.368;20.962;2023-02-03T04:26:26;96048.41;;;0.47;86.62
23339;BME280;11841;49.368;20.962;2023-02-03T04:28:53;96051.28;;;0.44;86.50
23339;BME280;11841;49.368;20.962;2023-02-03T04:31:19;96052.13;;;0.45;86.66
23339;BME280;11841;49.368;20.962;2023-02-03T04:33:46;96051.19;;;0.46;86.82
23339;BME280;11841;49.368;20.962;2023-02-03T04:36:12;96045.66;;;0.49;86.70
23339;BME280;11841;49.368;20.962;2023-02-03T04:38:40;96046.22;;;0.43;86.62
23339;BME280;11841;49.368;20.962;2023-02-03T04:41:06;96044.50;;;0.34;86.51
23339;BME280;11841;49.368;20.962;2023-02-03T04:43:33;96035.34;;;0.30;86.58
23339;BME280;11841;49.368;20.962;2023-02-03T04:45:59;96039.94;;;0.36;86.97
23339;BME280;11841;49.368;20.962;2023-02-03T04:48:26;96041.59;;;0.37;86.79
23339;BME280;11841;49.368;20.962;2023-02-03T04:50:53;96049.28;;;0.38;85.99
23339;BME280;11841;49.368;20.962;2023-02-03T04:53:19;96039.69;;;0.39;85.96
23339;BME280;11841;49.368;20.962;2023-02-03T04:55:46;96039.94;;;0.36;85.75
23339;BME280;11841;49.368;20.962;2023-02-03T04:58:13;96039.00;;;0.37;86.05
23339;BME280;11841;49.368;20.962;2023-02-03T05:00:40;96036.69;;;0.34;85.67
23339;BME280;11841;49.368;20.962;2023-02-03T05:03:06;96034.22;;;0.32;85.21
23339;BME280;11841;49.368;20.962;2023-02-03T05:05:33;96038.63;;;0.32;85.34
23339;BME280;11841;49.368;20.962;2023-02-03T05:07:59;96043.84;;;0.32;84.98
23339;BME280;11841;49.368;20.962;2023-02-03T05:10:26;96045.75;;;0.30;84.91
23339;BME280;11841;49.368;20.962;2023-02-03T05:12:53;96047.41;;;0.31;85.05
23339;BME280;11841;49.368;20.962;2023-02-03T05:15:19;96050.81;;;0.31;85.01
23339;BME280;11841;49.368;20.962;2023-02-03T05:17:45;96050.69;;;0.33;85.30
23339;BME280;11841;49.368;20.962;2023-02-03T05:20:12;96045.47;;;0.33;84.73
23339;BME280;11841;49.368;20.962;2023-02-03T05:22:39;96052.34;;;0.34;85.03
23339;BME280;11841;49.368;20.962;2023-02-03T05:25:05;96060.00;;;0.35;84.66
23339;BME280;11841;49.368;20.962;2023-02-03T05:27:32;96057.56;;;0.34;84.54
23339;BME280;11841;49.368;20.962;2023-02-03T05:29:58;96061.13;;;0.33;84.56
23339;BME280;11841;49.368;20.962;2023-02-03T05:32:25;96065.78;;;0.29;84.42
23339;BME280;11841;49.368;20.962;2023-02-03T05:34:52;96059.56;;;0.13;83.90
23339;BME280;11841;49.368;20.962;2023-02-03T05:37:18;96048.22;;;0.04;84.50
23339;BME280;11841;49.368;20.962;2023-02-03T05:39:45;96057.44;;;-0.02;84.21
23339;BME280;11841;49.368;20.962;2023-02-03T05:42:11;96052.22;;;-0.02;84.90
23339;BME280;11841;49.368;20.962;2023-02-03T05:44:38;96060.34;;;-0.05;84.60
23339;BME280;11841;49.368;20.962;2023-02-03T05:47:04;96065.31;;;-0.11;84.75
23339;BME280;11841;49.368;20.962;2023-02-03T05:49:31;96064.66;;;-0.23;84.60
23339;BME280;11841;49.368;20.962;2023-02-03T05:51:57;96067.03;;;-0.29;84.76
23339;BME280;11841;49.368;20.962;2023-02-03T05:54:24;96067.16;;;-0.31;85.22
23339;BME280;11841;49.368;20.962;2023-02-03T05:56:51;96069.09;;;-0.33;84.95
23339;BME280;11841;49.368;20.962;2023-02-03T05:59:17;96069.22;;;-0.34;84.94
23339;BME280;11841;49.368;20.962;2023-02-03T06:01:44;96071.28;;;-0.38;85.17
23339;BME280;11841;49.368;20.962;2023-02-03T06:04:10;96075.69;;;-0.38;85.03
23339;BME280;11841;49.368;20.962;2023-02-03T06:06:37;96076.75;;;-0.41;85.11
23339;BME280;11841;49.368;20.962;2023-02-03T06:09:04;96074.31;;;-0.42;84.76
23339;BME280;11841;49.368;20.962;2023-02-03T06:11:31;96074.03;;;-0.39;84.32
23339;BME280;11841;49.368;20.962;2023-02-03T06:13:59;96056.47;;;-0.37;84.97
23339;BME280;11841;49.368;20.962;2023-02-03T06:16:26;96067.44;;;-0.34;84.88
23339;BME280;11841;49.368;20.962;2023-02-03T06:18:53;96060.59;;;-0.35;84.44
23339;BME280;11841;49.368;20.962;2023-02-03T06:21:20;96057.28;;;-0.37;84.43
23339;BME280;11841;49.368;20.962;2023-02-03T06:23:47;96061.81;;;-0.39;84.36
23339;BME280;11841;49.368;20.962;2023-02-03T06:26:13;96047.16;;;-0.40;84.36
23339;BME280;11841;49.368;20.962;2023-02-03T06:28:40;96045.09;;;-0.46;84.00
23339;BME280;11841;49.368;20.962;2023-02-03T06:31:07;96045.94;;;-0.45;84.23
23339;BME280;11841;49.368;20.962;2023-02-03T06:33:33;96039.50;;;-0.41;84.12
23339;BME280;11841;49.368;20.962;2023-02-03T06:36:00;96035.97;;;-0.50;83.96
23339;BME280;11841;49.368;20.962;2023-02-03T06:38:26;96031.03;;;-0.53;83.84
23339;BME280;11841;49.368;20.962;2023-02-03T06:40:53;96021.72;;;-0.55;83.81
23339;BME280;11841;49.368;20.962;2023-02-03T06:43:19;96011.00;;;-0.52;83.89
23339;BME280;11841;49.368;20.962;2023-02-03T06:45:46;96015.41;;;-0.53;83.64
23339;BME280;11841;49.368;20.962;2023-02-03T06:48:12;96008.59;;;-0.63;83.16
23339;BME280;11841;49.368;20.962;2023-02-03T06:50:39;96017.38;;;-0.74;83.61
23339;BME280;11841;49.368;20.962;2023-02-03T06:53:06;96015.19;;;-0.78;84.24
23339;BME280;11841;49.368;20.962;2023-02-03T06:55:32;96015.06;;;-0.77;84.32
23339;BME280;11841;49.368;20.962;2023-02-03T06:57:59;96012.16;;;-0.74;84.27
23339;BME280;11841;49.368;20.962;2023-02-03T07:00:25;96000.91;;;-0.74;84.13
23339;BME280;11841;49.368;20.962;2023-02-03T07:02:53;95997.78;;;-0.78;84.05
23339;BME280;11841;49.368;20.962;2023-02-03T07:05:20;95990.94;;;-0.79;84.25
23339;BME280;11841;49.368;20.962;2023-02-03T07:07:47;95994.63;;;-0.72;84.51
23339;BME280;11841;49.368;20.962;2023-02-03T07:10:13;96000.53;;;-0.70;84.40
23339;BME280;11841;49.368;20.962;2023-02-03T07:12:40;95994.06;;;-0.66;84.77
23339;BME280;11841;49.368;20.962;2023-02-03T07:15:06;95991.16;;;-0.63;84.54
23339;BME280;11841;49.368;20.962;2023-02-03T07:17:33;95994.19;;;-0.58;84.55
23339;BME280;11841;49.368;20.962;2023-02-03T07:19:59;95995.97;;;-0.58;84.15
23339;BME280;11841;49.368;20.962;2023-02-03T07:22:26;95998.41;;;-0.57;84.13
23339;BME280;11841;49.368;20.962;2023-02-03T07:24:52;95992.38;;;-0.57;84.13
23339;BME280;11841;49.368;20.962;2023-02-03T07:27:19;95981.16;;;-0.58;84.04
23339;BME280;11841;49.368;20.962;2023-02-03T07:29:45;95981.16;;;-0.58;84.20
23339;BME280;11841;49.368;20.962;2023-02-03T07:32:12;95976.75;;;-0.57;84.44
23339;BME280;11841;49.368;20.962;2023-02-03T07:34:39;95980.88;;;-0.55;84.11
23339;BME280;11841;49.368;20.962;2023-02-03T07:37:05;95980.28;;;-0.49;84.50
23339;BME280;11841;49.368;20.962;2023-02-03T07:39:32;95976.16;;;-0.42;83.87
23339;BME280;11841;49.368;20.962;2023-02-03T07:41:59;95966.81;;;-0.35;83.63
23339;BME280;11841;49.368;20.962;2023-02-03T07:44:25;95968.81;;;-0.29;83.75
23339;BME280;11841;49.368;20.962;2023-02-03T07:46:52;95967.19;;;-0.30;83.49
23339;BME280;11841;49.368;20.962;2023-02-03T07:49:18;95967.56;;;-0.25;83.92
23339;BME280;11841;49.368;20.962;2023-02-03T07:51:45;95963.03;;;-0.23;83.83
23339;BME280;11841;49.368;20.962;2023-02-03T07:54:11;95965.34;;;-0.20;83.38
23339;BME280;11841;49.368;20.962;2023-02-03T07:56:38;95959.16;;;-0.19;83.17
23339;BME280;11841;49.368;20.962;2023-02-03T07:59:04;95953.97;;;-0.19;83.13
23339;BME280;11841;49.368;20.962;2023-02-03T08:01:31;95951.88;;;-0.15;83.33
23339;BME280;11841;49.368;20.962;2023-02-03T08:03:59;95949.81;;;-0.12;83.06
23339;BME280;11841;49.368;20.962;2023-02-03T08:06:27;95952.94;;;-0.08;82.99
23339;BME280;11841;49.368;20.962;2023-02-03T08:08:55;95953.09;;;-0.10;82.81
23339;BME280;11841;49.368;20.962;2023-02-03T08:11:22;95954.88;;;-0.10;82.82
23339;BME280;11841;49.368;20.962;2023-02-03T08:14:06;95950.50;;;-0.10;82.25
23339;BME280;11841;49.368;20.962;2023-02-03T08:16:32;95952.41;;;-0.12;82.11
23339;BME280;11841;49.368;20.962;2023-02-03T08:18:59;95952.16;;;-0.09;82.34
23339;BME280;11841;49.368;20.962;2023-02-03T08:21:25;95940.06;;;-0.10;81.92
23339;BME280;11841;49.368;20.962;2023-02-03T08:23:52;95940.38;;;-0.13;81.33
23339;BME280;11841;49.368;20.962;2023-02-03T08:26:18;95941.72;;;-0.09;81.28
23339;BME280;11841;49.368;20.962;2023-02-03T08:28:48;95929.34;;;-0.07;81.37
23339;BME280;11841;49.368;20.962;2023-02-03T08:31:15;95925.63;;;-0.04;80.60
23339;BME280;11841;49.368;20.962;2023-02-03T08:33:42;95921.09;;;-0.02;81.05
23339;BME280;11841;49.368;20.962;2023-02-03T08:36:08;95921.91;;;-0.02;80.69
23339;BME280;11841;49.368;20.962;2023-02-03T08:38:37;95924.13;;;-0.07;80.13
23339;BME280;11841;49.368;20.962;2023-02-03T08:41:07;95912.16;;;-0.17;79.16
23339;BME280;11841;49.368;20.962;2023-02-03T08:43:34;95921.06;;;-0.20;79.28
23339;BME280;11841;49.368;20.962;2023-02-03T08:46:02;95914.06;;;-0.19;79.87
23339;BME280;11841;49.368;20.962;2023-02-03T08:48:28;95910.25;;;-0.25;79.28
23339;BME280;11841;49.368;20.962;2023-02-03T08:50:55;95906.97;;;-0.27;79.13
23339;BME280;11841;49.368;20.962;2023-02-03T08:53:21;95914.78;;;-0.27;79.54
23339;BME280;11841;49.368;20.962;2023-02-03T08:55:48;95920.97;;;-0.28;78.58
23339;BME280;11841;49.368;20.962;2023-02-03T08:58:14;95910.19;;;-0.33;78.35
23339;BME280;11841;49.368;20.962;2023-02-03T09:00:41;95913.56;;;-0.32;78.97
23339;BME280;11841;49.368;20.962;2023-02-03T09:03:08;95910.84;;;-0.31;77.65
23339;BME280;11841;49.368;20.962;2023-02-03T09:05:34;95910.03;;;-0.31;77.96
23339;BME280;11841;49.368;20.962;2023-02-03T09:08:01;95902.78;;;-0.37;77.12
23339;BME280;11841;49.368;20.962;2023-02-03T09:10:28;95898.00;;;-0.42;77.12
23339;BME280;11841;49.368;20.962;2023-02-03T09:12:55;95890.19;;;-0.42;77.23
23339;BME280;11841;49.368;20.962;2023-02-03T09:15:21;95889.22;;;-0.41;77.51
23339;BME280;11841;49.368;20.962;2023-02-03T09:17:48;95893.88;;;-0.35;77.93
23339;BME280;11841;49.368;20.962;2023-02-03T09:20:15;95882.69;;;-0.27;77.59
23339;BME280;11841;49.368;20.962;2023-02-03T09:22:41;95879.16;;;-0.26;77.13
23339;BME280;11841;49.368;20.962;2023-02-03T09:25:08;95878.00;;;-0.24;76.37
23339;BME280;11841;49.368;20.962;2023-02-03T09:27:34;95868.41;;;-0.23;76.53
23339;BME280;11841;49.368;20.962;2023-02-03T09:30:01;95865.09;;;-0.16;77.30
23339;BME280;11841;49.368;20.962;2023-02-03T09:32:27;95870.00;;;-0.13;76.43
23339;BME280;11841;49.368;20.962;2023-02-03T09:34:54;95854.81;;;-0.17;75.60
23339;BME280;11841;49.368;20.962;2023-02-03T09:37:20;95853.09;;;-0.26;75.43
23339;BME280;11841;49.368;20.962;2023-02-03T09:39:47;95849.34;;;-0.24;76.56
23339;BME280;11841;49.368;20.962;2023-02-03T09:45:13;95847.72;;;-0.25;76.61
23339;BME280;11841;49.368;20.962;2023-02-03T09:47:43;95841.53;;;-0.24;76.20
23339;BME280;11841;49.368;20.962;2023-02-03T09:50:14;95837.53;;;-0.18;76.85
23339;BME280;11841;49.368;20.962;2023-02-03T09:52:45;95833.66;;;-0.14;76.32
23339;BME280;11841;49.368;20.962;2023-02-03T09:55:19;95827.25;;;-0.20;75.80
23339;BME280;11841;49.368;20.962;2023-02-03T09:58:14;95832.63;;;-0.21;76.21
23339;BME280;11841;49.368;20.962;2023-02-03T10:11:03;95801.72;;;0.02;76.58
23339;BME280;11841;49.368;20.962;2023-02-03T10:13:43;95801.06;;;-0.01;75.81
23339;BME280;11841;49.368;20.962;2023-02-03T10:19:16;95791.66;;;0.07;75.69
23339;BME280;11841;49.368;20.962;2023-02-03T10:21:47;95791.22;;;0.11;75.01
23339;BME280;11841;49.368;20.962;2023-02-03T10:24:19;95781.16;;;0.16;75.02
23339;BME280;11841;49.368;20.962;2023-02-03T10:26:47;95771.91;;;0.22;75.42
23339;BME280;11841;49.368;20.962;2023-02-03T10:29:17;95774.06;;;0.26;74.49
23339;BME280;11841;49.368;20.962;2023-02-03T10:31:44;95765.75;;;0.31;74.92
23339;BME280;11841;49.368;20.962;2023-02-03T10:34:13;95765.75;;;0.31;74.05
23339;BME280;11841;49.368;20.962;2023-02-03T10:42:05;95735.13;;;0.33;73.98
23339;BME280;11841;49.368;20.962;2023-02-03T10:44:35;95733.19;;;0.35;73.75
23339;BME280;11841;49.368;20.962;2023-02-03T10:47:08;95727.16;;;0.34;73.45
23339;BME280;11841;49.368;20.962;2023-02-03T10:49:40;95720.47;;;0.32;73.17
23339;BME280;11841;49.368;20.962;2023-02-03T10:52:08;95711.88;;;0.39;73.78
23339;BME280;11841;49.368;20.962;2023-02-03T10:54:49;95705.03;;;0.38;72.22
23339;BME280;11841;49.368;20.962;2023-02-03T10:57:15;95701.16;;;0.42;73.52
23339;BME280;11841;49.368;20.962;2023-02-03T10:59:45;95696.78;;;0.51;73.96
23339;BME280;11841;49.368;20.962;2023-02-03T11:04:47;95682.75;;;0.52;72.34
23339;BME280;11841;49.368;20.962;2023-02-03T11:07:33;95683.06;;;0.41;71.32
23339;BME280;11841;49.368;20.962;2023-02-03T11:09:59;95685.00;;;0.39;70.79
23339;BME280;11841;49.368;20.962;2023-02-03T11:12:26;95672.31;;;0.44;71.83
23339;BME280;11841;49.368;20.962;2023-02-03T11:14:52;95658.59;;;0.42;71.77
23339;BME280;11841;49.368;20.962;2023-02-03T11:19:48;95650.34;;;0.54;71.96
23339;BME280;11841;49.368;20.962;2023-02-03T11:22:27;95647.22;;;0.51;71.51
23339;BME280;11841;49.368;20.962;2023-02-03T11:24:55;95641.78;;;0.44;71.35
23339;BME280;11841;49.368;20.962;2023-02-03T11:27:22;95634.47;;;0.48;72.20
23339;BME280;11841;49.368;20.962;2023-02-03T11:29:51;95623.91;;;0.49;72.37
23339;BME280;11841;49.368;20.962;2023-02-03T11:32:22;95615.94;;;0.51;72.55
23339;BME280;11841;49.368;20.962;2023-02-03T11:34:55;95605.34;;;0.52;72.94
23339;BME280;11841;49.368;20.962;2023-02-03T11:37:24;95609.72;;;0.52;72.45
23339;BME280;11841;49.368;20.962;2023-02-03T11:42:44;95607.03;;;0.69;73.42
23339;BME280;11841;49.368;20.962;2023-02-03T11:45:16;95597.44;;;0.78;73.54
23339;BME280;11841;49.368;20.962;2023-02-03T12:00:42;95548.84;;;1.01;72.85
23339;BME280;11841;49.368;20.962;2023-02-03T12:13:27;95532.50;;;1.07;72.88
23339;BME280;11841;49.368;20.962;2023-02-03T12:26:57;95491.06;;;1.04;73.15
23339;BME280;11841;49.368;20.962;2023-02-03T12:29:29;95489.78;;;1.00;73.97
23339;BME280;11841;49.368;20.962;2023-02-03T12:32:03;95483.41;;;0.94;74.76
23339;BME280;11841;49.368;20.962;2023-02-03T12:37:21;95471.66;;;0.82;76.14
23339;BME280;11841;49.368;20.962;2023-02-03T12:40:11;95465.63;;;0.74;77.29
23339;BME280;11841;49.368;20.962;2023-02-03T12:45:33;95433.19;;;0.68;79.28
23339;BME280;11841;49.368;20.962;2023-02-03T12:48:04;95427.13;;;0.60;79.47
23339;BME280;11841;49.368;20.962;2023-02-03T12:50:41;95411.97;;;0.63;79.56
23339;BME280;11841;49.368;20.962;2023-02-03T12:53:13;95413.44;;;0.58;80.60
23339;BME280;11841;49.368;20.962;2023-02-03T12:55:45;95398.28;;;0.45;81.39
23339;BME280;11841;49.368;20.962;2023-02-03T12:58:23;95387.22;;;0.35;82.77
23339;BME280;11841;49.368;20.962;2023-02-03T13:08:52;95353.78;;;0.47;83.26
23339;BME280;11841;49.368;20.962;2023-02-03T13:13:46;95355.75;;;0.45;84.77
23339;BME280;11841;49.368;20.962;2023-02-03T13:16:13;95343.38;;;0.47;84.60
23339;BME280;11841;49.368;20.962;2023-02-03T13:18:43;95330.00;;;0.50;85.04
23339;BME280;11841;49.368;20.962;2023-02-03T13:21:11;95326.09;;;0.54;85.79
23339;BME280;11841;49.368;20.962;2023-02-03T13:23:41;95329.50;;;0.54;84.91
23339;BME280;11841;49.368;20.962;2023-02-03T13:26:14;95314.66;;;0.55;85.42
23339;BME280;11841;49.368;20.962;2023-02-03T13:41:55;95276.88;;;0.51;85.38
23339;BME280;11841;49.368;20.962;2023-02-03T13:44:24;95265.59;;;0.50;85.84
23339;BME280;11841;49.368;20.962;2023-02-03T13:46:54;95270.47;;;0.53;85.57
23339;BME280;11841;49.368;20.962;2023-02-03T13:49:39;95252.75;;;0.41;85.85
23339;BME280;11841;49.368;20.962;2023-02-03T13:52:24;95243.78;;;0.43;86.38
23339;BME280;11841;49.368;20.962;2023-02-03T13:54:52;95241.81;;;0.45;86.17
23339;BME280;11841;49.368;20.962;2023-02-03T13:57:20;95246.91;;;0.39;86.76
23339;BME280;11841;49.368;20.962;2023-02-03T13:59:47;95228.00;;;0.37;86.99
23339;BME280;11841;49.368;20.962;2023-02-03T14:15:21;95191.34;;;0.30;88.55
23339;BME280;11841;49.368;20.962;2023-02-03T14:25:19;95168.00;;;0.37;88.44
23339;BME280;11841;49.368;20.962;2023-02-03T14:27:46;95164.09;;;0.41;88.85
23339;BME280;11841;49.368;20.962;2023-02-03T14:30:14;95163.44;;;0.31;89.17
23339;BME280;11841;49.368;20.962;2023-02-03T14:35:15;95149.41;;;0.40;89.06
23339;BME280;11841;49.368;20.962;2023-02-03T14:37:50;95143.38;;;0.39;88.84
23339;BME280;11841;49.368;20.962;2023-02-03T14:40:27;95138.16;;;0.39;89.41
23339;BME280;11841;49.368;20.962;2023-02-03T14:51:14;95100.09;;;0.22;90.51
23339;BME280;11841;49.368;20.962;2023-02-03T14:59:17;95078.81;;;0.19;91.23
23339;BME280;11841;49.368;20.962;2023-02-03T15:06:48;95061.16;;;0.21;91.84
23339;BME280;11841;49.368;20.962;2023-02-03T15:11:44;95055.81;;;0.14;91.41
23339;BME280;11841;49.368;20.962;2023-02-03T15:14:17;95049.81;;;0.14;91.85
23339;BME280;11841;49.368;20.962;2023-02-03T15:16:52;95039.22;;;0.15;92.37
23339;BME280;11841;49.368;20.962;2023-02-03T15:19:21;95042.31;;;0.11;92.25
23339;BME280;11841;49.368;20.962;2023-02-03T15:21:48;95031.25;;;0.09;92.48
23339;BME280;11841;49.368;20.962;2023-02-03T15:24:15;95022.47;;;0.10;92.57
23339;BME280;11841;49.368;20.962;2023-02-03T15:26:45;95018.22;;;0.09;92.66
23339;BME280;11841;49.368;20.962;2023-02-03T15:29:20;95025.06;;;0.10;93.10
23339;BME280;11841;49.368;20.962;2023-02-03T15:31:51;95025.06;;;0.10;92.58
23339;BME280;11841;49.368;20.962;2023-02-03T15:36:46;95027.63;;;0.18;92.34
23339;BME280;11841;49.368;20.962;2023-02-03T15:42:00;95016.56;;;0.16;92.49
23339;BME280;11841;49.368;20.962;2023-02-03T15:44:29;95016.84;;;0.21;92.41
23339;BME280;11841;49.368;20.962;2023-02-03T15:46:58;95007.44;;;0.20;92.34
23339;BME280;11841;49.368;20.962;2023-02-03T15:49:30;95001.88;;;0.23;92.30
23339;BME280;11841;49.368;20.962;2023-02-03T15:51:59;95004.19;;;0.18;92.57
23339;BME280;11841;49.368;20.962;2023-02-03T15:54:31;94991.13;;;0.18;92.54